sensor_id;sensor_type;location;lat;lon;timestamp;temperature;humidity
21167;DHT22;10741;52.272;9.580;2022-12-07T00:01:14;4.00;99.90
21167;DHT22;10741;52.272;9.580;2022-12-07T00:03:41;4.00;99.90
21167;DHT22;10741;52.272;9.580;2022-12-07T00:06:10;4.00;99.90
21167;DHT22;10741;52.272;9.580;2022-12-07T00:08:37;4.00;99.90
21167;DHT22;10741;52.272;9.580;2022-12-07T00:11:03;4.00;99.90
21167;DHT22;10741;52.272;9.580;2022-12-07T00:13:31;4.00;99.90
21167;DHT22;10741;52.272;9.580;2022-12-07T00:16:04;4.00;99.90
21167;DHT22;10741;52.272;9.580;2022-12-07T00:18:30;4.10;99.90
21167;DHT22;10741;52.272;9.580;2022-12-07T00:21:19;4.10;99.90
21167;DHT22;10741;52.272;9.580;2022-12-07T00:23:47;4.10;99.90
21167;DHT22;10741;52.272;9.580;2022-12-07T00:26:17;4.10;99.90
21167;DHT22;10741;52.272;9.580;2022-12-07T00:28:48;4.10;99.90
21167;DHT22;10741;52.272;9.580;2022-12-07T00:31:15;4.10;99.90
21167;DHT22;10741;52.272;9.580;2022-12-07T00:33:41;4.10;99.90
21167;DHT22;10741;52.272;9.580;2022-12-07T00:36:10;4.00;99.90
21167;DHT22;10741;52.272;9.580;2022-12-07T00:38:38;4.00;99.90
21167;DHT22;10741;52.272;9.580;2022-12-07T00:41:06;4.00;99.90
21167;DHT22;10741;52.272;9.580;2022-12-07T00:43:32;4.00;99.90
21167;DHT22;10741;52.272;9.580;2022-12-07T00:45:58;4.10;99.90
21167;DHT22;10741;52.272;9.580;2022-12-07T00:48:24;4.10;99.90
21167;DHT22;10741;52.272;9.580;2022-12-07T00:50:51;4.10;99.90
21167;DHT22;10741;52.272;9.580;2022-12-07T00:53:17;4.10;99.90
21167;DHT22;10741;52.272;9.580;2022-12-07T00:55:43;4.10;99.90
21167;DHT22;10741;52.272;9.580;2022-12-07T00:58:09;4.10;99.90
21167;DHT22;10741;52.272;9.580;2022-12-07T01:00:37;4.10;99.90
21167;DHT22;10741;52.272;9.580;2022-12-07T01:03:04;4.10;99.90
21167;DHT22;10741;52.272;9.580;2022-12-07T01:05:30;4.10;99.90
21167;DHT22;10741;52.272;9.580;2022-12-07T01:07:55;4.10;99.90
21167;DHT22;10741;52.272;9.580;2022-12-07T01:10:21;4.20;99.90
21167;DHT22;10741;52.272;9.580;2022-12-07T01:12:47;4.20;99.90
21167;DHT22;10741;52.272;9.580;2022-12-07T01:15:13;4.20;99.90
21167;DHT22;10741;52.272;9.580;2022-12-07T01:17:39;4.20;99.90
21167;DHT22;10741;52.272;9.580;2022-12-07T01:20:05;4.30;99.90
21167;DHT22;10741;52.272;9.580;2022-12-07T01:22:31;4.30;99.90
21167;DHT22;10741;52.272;9.580;2022-12-07T01:24:56;4.30;99.90
21167;DHT22;10741;52.272;9.580;2022-12-07T01:27:22;4.30;99.90
21167;DHT22;10741;52.272;9.580;2022-12-07T01:29:48;4.30;99.90
21167;DHT22;10741;52.272;9.580;2022-12-07T01:32:14;4.30;99.90
21167;DHT22;10741;52.272;9.580;2022-12-07T01:34:39;4.30;99.90
21167;DHT22;10741;52.272;9.580;2022-12-07T01:37:05;4.30;99.90
21167;DHT22;10741;52.272;9.580;2022-12-07T01:39:31;4.40;99.90
21167;DHT22;10741;52.272;9.580;2022-12-07T01:41:56;4.40;99.90
21167;DHT22;10741;52.272;9.580;2022-12-07T01:44:27;4.40;99.90
21167;DHT22;10741;52.272;9.580;2022-12-07T01:46:56;4.40;99.90
21167;DHT22;10741;52.272;9.580;2022-12-07T01:52:45;4.40;99.90
21167;DHT22;10741;52.272;9.580;2022-12-07T01:54:48;4.40;99.90
21167;DHT22;10741;52.272;9.580;2022-12-07T01:57:15;4.50;99.90
21167;DHT22;10741;52.272;9.580;2022-12-07T01:59:43;4.50;99.90
21167;DHT22;10741;52.272;9.580;2022-12-07T02:02:17;4.50;99.90
21167;DHT22;10741;52.272;9.580;2022-12-07T02:04:44;4.50;99.90
21167;DHT22;10741;52.272;9.580;2022-12-07T02:07:10;4.50;99.90
21167;DHT22;10741;52.272;9.580;2022-12-07T02:09:36;4.50;99.90
21167;DHT22;10741;52.272;9.580;2022-12-07T02:12:02;4.60;99.90
21167;DHT22;10741;52.272;9.580;2022-12-07T02:14:29;4.60;99.90
21167;DHT22;10741;52.272;9.580;2022-12-07T02:28:06;4.30;99.90
21167;DHT22;10741;52.272;9.580;2022-12-07T02:30:37;4.20;99.90
21167;DHT22;10741;52.272;9.580;2022-12-07T02:33:14;4.20;99.90
21167;DHT22;10741;52.272;9.580;2022-12-07T02:40:53;3.90;99.90
21167;DHT22;10741;52.272;9.580;2022-12-07T02:43:21;3.90;99.90
21167;DHT22;10741;52.272;9.580;2022-12-07T02:45:52;3.80;99.90
21167;DHT22;10741;52.272;9.580;2022-12-07T02:48:19;3.80;99.90
21167;DHT22;10741;52.272;9.580;2022-12-07T02:50:49;3.70;99.90
21167;DHT22;10741;52.272;9.580;2022-12-07T02:53:33;3.70;99.90
21167;DHT22;10741;52.272;9.580;2022-12-07T02:56:06;3.60;99.90
21167;DHT22;10741;52.272;9.580;2022-12-07T02:58:58;3.60;99.90
21167;DHT22;10741;52.272;9.580;2022-12-07T03:01:42;3.60;99.90
21167;DHT22;10741;52.272;9.580;2022-12-07T03:04:40;3.60;99.90
21167;DHT22;10741;52.272;9.580;2022-12-07T03:09:46;3.60;99.90
21167;DHT22;10741;52.272;9.580;2022-12-07T03:12:22;3.60;99.90
21167;DHT22;10741;52.272;9.580;2022-12-07T03:15:06;3.60;99.90
21167;DHT22;10741;52.272;9.580;2022-12-07T03:17:36;3.60;99.90
21167;DHT22;10741;52.272;9.580;2022-12-07T03:20:05;3.60;99.90
21167;DHT22;10741;52.272;9.580;2022-12-07T03:22:34;3.60;99.90
21167;DHT22;10741;52.272;9.580;2022-12-07T03:25:04;3.70;99.90
21167;DHT22;10741;52.272;9.580;2022-12-07T03:27:46;3.70;99.90
21167;DHT22;10741;52.272;9.580;2022-12-07T03:30:21;3.70;99.90
21167;DHT22;10741;52.272;9.580;2022-12-07T03:32:58;3.70;99.90
21167;DHT22;10741;52.272;9.580;2022-12-07T03:35:33;3.70;99.90
21167;DHT22;10741;52.272;9.580;2022-12-07T03:40:47;3.70;99.90
21167;DHT22;10741;52.272;9.580;2022-12-07T03:43:16;3.80;99.90
21167;DHT22;10741;52.272;9.580;2022-12-07T03:45:45;3.70;99.90
21167;DHT22;10741;52.272;9.580;2022-12-07T03:48:28;3.90;99.90
21167;DHT22;10741;52.272;9.580;2022-12-07T03:51:15;3.80;99.90
21167;DHT22;10741;52.272;9.580;2022-12-07T03:54:02;3.90;99.90
21167;DHT22;10741;52.272;9.580;2022-12-07T03:56:32;3.80;99.90
21167;DHT22;10741;52.272;9.580;2022-12-07T03:58:58;3.80;99.90
21167;DHT22;10741;52.272;9.580;2022-12-07T04:01:24;3.70;99.90
21167;DHT22;10741;52.272;9.580;2022-12-07T04:03:50;3.80;99.90
21167;DHT22;10741;52.272;9.580;2022-12-07T04:06:16;3.70;99.90
21167;DHT22;10741;52.272;9.580;2022-12-07T04:08:43;3.80;99.90
21167;DHT22;10741;52.272;9.580;2022-12-07T04:11:09;3.90;99.90
21167;DHT22;10741;52.272;9.580;2022-12-07T04:13:35;4.00;99.90
21167;DHT22;10741;52.272;9.580;2022-12-07T04:16:21;4.00;99.90
21167;DHT22;10741;52.272;9.580;2022-12-07T04:18:47;4.00;99.90
21167;DHT22;10741;52.272;9.580;2022-12-07T04:21:12;4.00;99.90
21167;DHT22;10741;52.272;9.580;2022-12-07T04:23:38;4.00;99.90
21167;DHT22;10741;52.272;9.580;2022-12-07T04:26:04;4.10;99.90
21167;DHT22;10741;52.272;9.580;2022-12-07T04:28:30;4.10;99.90
21167;DHT22;10741;52.272;9.580;2022-12-07T04:30:55;4.10;99.90
21167;DHT22;10741;52.272;9.580;2022-12-07T04:33:21;4.10;99.90
21167;DHT22;10741;52.272;9.580;2022-12-07T04:35:47;4.20;99.90
21167;DHT22;10741;52.272;9.580;2022-12-07T04:38:13;4.20;99.90
21167;DHT22;10741;52.272;9.580;2022-12-07T04:40:38;4.20;99.90
21167;DHT22;10741;52.272;9.580;2022-12-07T04:43:04;4.20;99.90
21167;DHT22;10741;52.272;9.580;2022-12-07T04:45:30;4.20;99.90
21167;DHT22;10741;52.272;9.580;2022-12-07T04:47:56;4.20;99.90
21167;DHT22;10741;52.272;9.580;2022-12-07T04:50:21;4.10;99.90
21167;DHT22;10741;52.272;9.580;2022-12-07T04:52:47;4.00;99.90
21167;DHT22;10741;52.272;9.580;2022-12-07T04:55:13;4.00;99.90
21167;DHT22;10741;52.272;9.580;2022-12-07T04:57:38;3.90;99.90
21167;DHT22;10741;52.272;9.580;2022-12-07T05:00:05;4.00;99.90
21167;DHT22;10741;52.272;9.580;2022-12-07T05:02:31;4.00;99.90
21167;DHT22;10741;52.272;9.580;2022-12-07T05:04:56;4.00;99.90
21167;DHT22;10741;52.272;9.580;2022-12-07T05:07:22;4.00;99.90
21167;DHT22;10741;52.272;9.580;2022-12-07T05:09:48;4.00;99.90
21167;DHT22;10741;52.272;9.580;2022-12-07T05:12:13;4.10;99.90
21167;DHT22;10741;52.272;9.580;2022-12-07T05:14:39;4.10;99.90
21167;DHT22;10741;52.272;9.580;2022-12-07T05:17:05;4.10;99.90
21167;DHT22;10741;52.272;9.580;2022-12-07T05:19:30;4.10;99.90
21167;DHT22;10741;52.272;9.580;2022-12-07T05:21:56;4.10;99.90
21167;DHT22;10741;52.272;9.580;2022-12-07T05:24:22;4.20;99.90
21167;DHT22;10741;52.272;9.580;2022-12-07T05:26:48;4.10;99.90
21167;DHT22;10741;52.272;9.580;2022-12-07T05:29:15;4.20;99.90
21167;DHT22;10741;52.272;9.580;2022-12-07T05:31:42;4.20;99.90
21167;DHT22;10741;52.272;9.580;2022-12-07T05:34:08;4.20;99.90
21167;DHT22;10741;52.272;9.580;2022-12-07T05:36:34;4.10;99.90
21167;DHT22;10741;52.272;9.580;2022-12-07T05:38:59;4.20;99.90
21167;DHT22;10741;52.272;9.580;2022-12-07T05:41:25;4.20;99.90
21167;DHT22;10741;52.272;9.580;2022-12-07T05:44:10;4.20;99.90
21167;DHT22;10741;52.272;9.580;2022-12-07T05:46:36;4.20;99.90
21167;DHT22;10741;52.272;9.580;2022-12-07T05:49:01;4.20;99.90
21167;DHT22;10741;52.272;9.580;2022-12-07T05:51:28;4.20;99.90
21167;DHT22;10741;52.272;9.580;2022-12-07T05:53:53;4.20;99.90
21167;DHT22;10741;52.272;9.580;2022-12-07T05:56:19;4.20;99.90
21167;DHT22;10741;52.272;9.580;2022-12-07T05:58:45;4.20;99.90
21167;DHT22;10741;52.272;9.580;2022-12-07T06:01:29;4.20;99.90
21167;DHT22;10741;52.272;9.580;2022-12-07T06:03:55;4.20;99.90
21167;DHT22;10741;52.272;9.580;2022-12-07T06:06:21;4.20;99.90
21167;DHT22;10741;52.272;9.580;2022-12-07T06:08:46;4.20;99.90
21167;DHT22;10741;52.272;9.580;2022-12-07T06:11:12;4.20;99.90
21167;DHT22;10741;52.272;9.580;2022-12-07T06:13:56;4.20;99.90
21167;DHT22;10741;52.272;9.580;2022-12-07T06:16:22;4.20;99.90
21167;DHT22;10741;52.272;9.580;2022-12-07T06:18:48;4.10;99.90
21167;DHT22;10741;52.272;9.580;2022-12-07T06:21:13;4.10;99.90
21167;DHT22;10741;52.272;9.580;2022-12-07T06:23:39;4.10;99.90
21167;DHT22;10741;52.272;9.580;2022-12-07T06:26:05;4.10;99.90
21167;DHT22;10741;52.272;9.580;2022-12-07T06:28:31;4.10;99.90
21167;DHT22;10741;52.272;9.580;2022-12-07T06:30:58;4.10;99.90
21167;DHT22;10741;52.272;9.580;2022-12-07T06:33:24;4.10;99.90
21167;DHT22;10741;52.272;9.580;2022-12-07T06:35:50;4.10;99.90
21167;DHT22;10741;52.272;9.580;2022-12-07T06:38:16;4.20;99.90
21167;DHT22;10741;52.272;9.580;2022-12-07T06:40:42;4.20;99.90
21167;DHT22;10741;52.272;9.580;2022-12-07T06:43:08;4.20;99.90
21167;DHT22;10741;52.272;9.580;2022-12-07T06:45:34;4.10;99.90
21167;DHT22;10741;52.272;9.580;2022-12-07T06:47:59;4.10;99.90
21167;DHT22;10741;52.272;9.580;2022-12-07T06:50:25;4.10;99.90
21167;DHT22;10741;52.272;9.580;2022-12-07T06:52:51;4.10;99.90
21167;DHT22;10741;52.272;9.580;2022-12-07T06:55:17;4.10;99.90
21167;DHT22;10741;52.272;9.580;2022-12-07T06:57:43;4.10;99.90
21167;DHT22;10741;52.272;9.580;2022-12-07T07:00:09;4.10;99.90
21167;DHT22;10741;52.272;9.580;2022-12-07T07:02:35;4.00;99.90
21167;DHT22;10741;52.272;9.580;2022-12-07T07:05:02;4.00;99.90
21167;DHT22;10741;52.272;9.580;2022-12-07T07:07:28;3.90;99.90
21167;DHT22;10741;52.272;9.580;2022-12-07T07:09:53;3.80;99.90
21167;DHT22;10741;52.272;9.580;2022-12-07T07:12:19;3.70;99.90
21167;DHT22;10741;52.272;9.580;2022-12-07T07:14:45;3.70;99.90
21167;DHT22;10741;52.272;9.580;2022-12-07T07:17:11;3.60;99.90
21167;DHT22;10741;52.272;9.580;2022-12-07T07:19:36;3.60;99.90
21167;DHT22;10741;52.272;9.580;2022-12-07T07:22:03;3.60;99.90
21167;DHT22;10741;52.272;9.580;2022-12-07T07:24:29;3.60;99.90
21167;DHT22;10741;52.272;9.580;2022-12-07T07:26:55;3.50;99.90
21167;DHT22;10741;52.272;9.580;2022-12-07T07:29:21;3.50;99.90
21167;DHT22;10741;52.272;9.580;2022-12-07T07:31:47;3.60;99.90
21167;DHT22;10741;52.272;9.580;2022-12-07T07:34:12;3.60;99.90
21167;DHT22;10741;52.272;9.580;2022-12-07T07:36:38;3.60;99.90
21167;DHT22;10741;52.272;9.580;2022-12-07T07:39:04;3.70;99.90
21167;DHT22;10741;52.272;9.580;2022-12-07T07:41:30;3.70;99.90
21167;DHT22;10741;52.272;9.580;2022-12-07T07:43:57;3.80;99.90
21167;DHT22;10741;52.272;9.580;2022-12-07T07:46:22;3.80;99.90
21167;DHT22;10741;52.272;9.580;2022-12-07T07:48:48;3.80;99.90
21167;DHT22;10741;52.272;9.580;2022-12-07T07:51:14;3.80;99.90
21167;DHT22;10741;52.272;9.580;2022-12-07T07:53:40;3.80;99.90
21167;DHT22;10741;52.272;9.580;2022-12-07T07:56:06;3.80;99.90
21167;DHT22;10741;52.272;9.580;2022-12-07T07:58:31;3.80;99.90
21167;DHT22;10741;52.272;9.580;2022-12-07T08:01:02;3.90;99.90
21167;DHT22;10741;52.272;9.580;2022-12-07T08:03:28;3.90;99.90
21167;DHT22;10741;52.272;9.580;2022-12-07T08:05:54;3.90;99.90
21167;DHT22;10741;52.272;9.580;2022-12-07T08:08:20;3.90;99.90
21167;DHT22;10741;52.272;9.580;2022-12-07T08:10:46;3.90;99.90
21167;DHT22;10741;52.272;9.580;2022-12-07T08:13:11;4.00;99.90
21167;DHT22;10741;52.272;9.580;2022-12-07T08:15:40;4.00;99.90
21167;DHT22;10741;52.272;9.580;2022-12-07T08:18:07;4.10;99.90
21167;DHT22;10741;52.272;9.580;2022-12-07T08:20:34;4.10;99.90
21167;DHT22;10741;52.272;9.580;2022-12-07T08:23:01;4.10;99.90
21167;DHT22;10741;52.272;9.580;2022-12-07T08:25:27;4.20;99.90
21167;DHT22;10741;52.272;9.580;2022-12-07T08:27:53;4.20;99.90
21167;DHT22;10741;52.272;9.580;2022-12-07T08:30:19;4.30;99.90
21167;DHT22;10741;52.272;9.580;2022-12-07T08:32:46;4.30;99.90
21167;DHT22;10741;52.272;9.580;2022-12-07T08:35:12;4.30;99.90
21167;DHT22;10741;52.272;9.580;2022-12-07T08:37:38;4.30;99.90
21167;DHT22;10741;52.272;9.580;2022-12-07T08:40:05;4.40;99.90
21167;DHT22;10741;52.272;9.580;2022-12-07T08:42:31;4.40;99.90
21167;DHT22;10741;52.272;9.580;2022-12-07T08:45:08;4.50;99.90
21167;DHT22;10741;52.272;9.580;2022-12-07T08:47:36;4.50;99.90
21167;DHT22;10741;52.272;9.580;2022-12-07T08:50:03;4.60;99.90
21167;DHT22;10741;52.272;9.580;2022-12-07T08:52:31;4.60;99.90
21167;DHT22;10741;52.272;9.580;2022-12-07T08:54:59;4.50;99.90
21167;DHT22;10741;52.272;9.580;2022-12-07T08:57:27;4.50;99.90
21167;DHT22;10741;52.272;9.580;2022-12-07T08:59:54;4.50;99.90
21167;DHT22;10741;52.272;9.580;2022-12-07T09:02:19;4.40;99.90
21167;DHT22;10741;52.272;9.580;2022-12-07T09:04:45;4.50;99.90
21167;DHT22;10741;52.272;9.580;2022-12-07T09:07:11;4.60;99.90
21167;DHT22;10741;52.272;9.580;2022-12-07T09:09:37;4.70;99.90
21167;DHT22;10741;52.272;9.580;2022-12-07T09:12:03;4.70;99.90
21167;DHT22;10741;52.272;9.580;2022-12-07T09:14:29;4.70;99.90
21167;DHT22;10741;52.272;9.580;2022-12-07T09:16:55;4.70;99.90
21167;DHT22;10741;52.272;9.580;2022-12-07T09:19:20;4.70;99.90
21167;DHT22;10741;52.272;9.580;2022-12-07T09:21:46;4.60;99.90
21167;DHT22;10741;52.272;9.580;2022-12-07T09:24:13;4.50;99.90
21167;DHT22;10741;52.272;9.580;2022-12-07T09:26:38;4.40;99.90
21167;DHT22;10741;52.272;9.580;2022-12-07T09:29:06;4.30;99.90
21167;DHT22;10741;52.272;9.580;2022-12-07T09:31:32;4.30;99.90
21167;DHT22;10741;52.272;9.580;2022-12-07T09:33:59;4.20;99.90
21167;DHT22;10741;52.272;9.580;2022-12-07T09:36:26;4.30;99.90
21167;DHT22;10741;52.272;9.580;2022-12-07T09:38:52;4.30;99.90
21167;DHT22;10741;52.272;9.580;2022-12-07T09:41:19;4.40;99.90
21167;DHT22;10741;52.272;9.580;2022-12-07T09:43:45;4.40;99.90
21167;DHT22;10741;52.272;9.580;2022-12-07T09:46:15;4.50;99.90
21167;DHT22;10741;52.272;9.580;2022-12-07T09:48:43;4.60;99.90
21167;DHT22;10741;52.272;9.580;2022-12-07T09:53:44;4.60;99.90
21167;DHT22;10741;52.272;9.580;2022-12-07T09:56:14;4.60;99.90
21167;DHT22;10741;52.272;9.580;2022-12-07T09:58:40;4.70;99.90
21167;DHT22;10741;52.272;9.580;2022-12-07T10:01:19;4.70;99.90
21167;DHT22;10741;52.272;9.580;2022-12-07T10:04:13;4.70;99.90
21167;DHT22;10741;52.272;9.580;2022-12-07T10:06:40;4.90;99.90
21167;DHT22;10741;52.272;9.580;2022-12-07T10:09:14;5.20;99.90
21167;DHT22;10741;52.272;9.580;2022-12-07T10:12:03;5.30;99.90
21167;DHT22;10741;52.272;9.580;2022-12-07T10:14:31;5.40;99.90
21167;DHT22;10741;52.272;9.580;2022-12-07T10:16:58;5.50;99.90
21167;DHT22;10741;52.272;9.580;2022-12-07T10:19:29;5.50;99.90
21167;DHT22;10741;52.272;9.580;2022-12-07T10:22:01;5.50;99.90
21167;DHT22;10741;52.272;9.580;2022-12-07T10:24:28;5.50;99.90
21167;DHT22;10741;52.272;9.580;2022-12-07T10:26:54;5.50;99.90
21167;DHT22;10741;52.272;9.580;2022-12-07T10:29:31;5.50;99.90
21167;DHT22;10741;52.272;9.580;2022-12-07T10:32:04;5.50;99.90
21167;DHT22;10741;52.272;9.580;2022-12-07T10:34:37;5.50;99.90
21167;DHT22;10741;52.272;9.580;2022-12-07T10:42:29;5.50;99.90
21167;DHT22;10741;52.272;9.580;2022-12-07T10:45:13;5.40;99.90
21167;DHT22;10741;52.272;9.580;2022-12-07T10:48:24;5.30;99.90
21167;DHT22;10741;52.272;9.580;2022-12-07T10:53:58;5.50;99.90
21167;DHT22;10741;52.272;9.580;2022-12-07T10:56:53;5.80;99.90
21167;DHT22;10741;52.272;9.580;2022-12-07T11:03:06;7.30;99.90
21167;DHT22;10741;52.272;9.580;2022-12-07T11:10:30;7.60;99.90
21167;DHT22;10741;52.272;9.580;2022-12-07T11:13:21;7.30;99.90
21167;DHT22;10741;52.272;9.580;2022-12-07T11:21:21;7.00;99.90
21167;DHT22;10741;52.272;9.580;2022-12-07T11:24:01;7.20;99.90
21167;DHT22;10741;52.272;9.580;2022-12-07T11:35:22;6.30;99.90
21167;DHT22;10741;52.272;9.580;2022-12-07T11:37:55;6.10;99.90
21167;DHT22;10741;52.272;9.580;2022-12-07T11:40:33;5.90;99.90
21167;DHT22;10741;52.272;9.580;2022-12-07T11:43:15;5.80;99.90
21167;DHT22;10741;52.272;9.580;2022-12-07T11:45:47;5.80;99.90
21167;DHT22;10741;52.272;9.580;2022-12-07T11:51:07;5.90;99.90
21167;DHT22;10741;52.272;9.580;2022-12-07T11:53:49;5.90;99.90
21167;DHT22;10741;52.272;9.580;2022-12-07T11:56:20;6.00;99.90
21167;DHT22;10741;52.272;9.580;2022-12-07T12:06:42;6.20;99.90
21167;DHT22;10741;52.272;9.580;2022-12-07T12:09:15;6.10;99.90
21167;DHT22;10741;52.272;9.580;2022-12-07T12:22:42;5.50;99.90
21167;DHT22;10741;52.272;9.580;2022-12-07T12:25:22;5.60;99.90
21167;DHT22;10741;52.272;9.580;2022-12-07T12:27:50;5.70;99.90
21167;DHT22;10741;52.272;9.580;2022-12-07T12:30:30;5.80;99.90
21167;DHT22;10741;52.272;9.580;2022-12-07T12:33:14;5.90;99.90
21167;DHT22;10741;52.272;9.580;2022-12-07T12:35:41;6.00;99.90
21167;DHT22;10741;52.272;9.580;2022-12-07T12:38:27;6.10;99.90
21167;DHT22;10741;52.272;9.580;2022-12-07T12:40:56;6.20;99.90
21167;DHT22;10741;52.272;9.580;2022-12-07T12:51:47;6.00;99.90
21167;DHT22;10741;52.272;9.580;2022-12-07T12:54:26;6.10;99.90
21167;DHT22;10741;52.272;9.580;2022-12-07T12:56:59;6.10;99.90
21167;DHT22;10741;52.272;9.580;2022-12-07T12:59:36;6.00;99.90
21167;DHT22;10741;52.272;9.580;2022-12-07T13:05:24;5.90;99.90
21167;DHT22;10741;52.272;9.580;2022-12-07T13:07:54;5.80;99.90
21167;DHT22;10741;52.272;9.580;2022-12-07T13:15:38;5.80;99.90
21167;DHT22;10741;52.272;9.580;2022-12-07T13:26:23;5.60;99.90
21167;DHT22;10741;52.272;9.580;2022-12-07T13:29:05;5.60;99.90
21167;DHT22;10741;52.272;9.580;2022-12-07T13:31:54;5.60;99.90
21167;DHT22;10741;52.272;9.580;2022-12-07T13:34:47;5.60;99.90
21167;DHT22;10741;52.272;9.580;2022-12-07T13:37:15;5.60;99.90
21167;DHT22;10741;52.272;9.580;2022-12-07T13:39:51;5.50;99.90
21167;DHT22;10741;52.272;9.580;2022-12-07T13:42:31;5.50;99.90
21167;DHT22;10741;52.272;9.580;2022-12-07T13:45:00;5.50;99.90
21167;DHT22;10741;52.272;9.580;2022-12-07T13:47:41;5.40;99.90
21167;DHT22;10741;52.272;9.580;2022-12-07T13:50:30;5.40;99.90
21167;DHT22;10741;52.272;9.580;2022-12-07T13:53:00;5.40;99.90
21167;DHT22;10741;52.272;9.580;2022-12-07T13:55:28;5.30;99.90
21167;DHT22;10741;52.272;9.580;2022-12-07T13:57:55;5.30;99.90
21167;DHT22;10741;52.272;9.580;2022-12-07T14:00:26;5.30;99.90
21167;DHT22;10741;52.272;9.580;2022-12-07T14:03:01;5.30;99.90
21167;DHT22;10741;52.272;9.580;2022-12-07T14:05:35;5.20;99.90
21167;DHT22;10741;52.272;9.580;2022-12-07T14:13:37;5.20;99.90
21167;DHT22;10741;52.272;9.580;2022-12-07T14:16:38;5.10;99.90
21167;DHT22;10741;52.272;9.580;2022-12-07T14:22:07;5.10;99.90
21167;DHT22;10741;52.272;9.580;2022-12-07T14:24:41;5.00;99.90
21167;DHT22;10741;52.272;9.580;2022-12-07T14:27:20;5.00;99.90
21167;DHT22;10741;52.272;9.580;2022-12-07T14:29:47;5.00;99.90
21167;DHT22;10741;52.272;9.580;2022-12-07T14:32:25;5.00;99.90
21167;DHT22;10741;52.272;9.580;2022-12-07T14:37:24;5.00;99.90
21167;DHT22;10741;52.272;9.580;2022-12-07T14:39:50;5.00;99.90
21167;DHT22;10741;52.272;9.580;2022-12-07T14:42:15;5.00;99.90
21167;DHT22;10741;52.272;9.580;2022-12-07T14:44:42;5.00;99.90
21167;DHT22;10741;52.272;9.580;2022-12-07T14:47:10;4.90;99.90
21167;DHT22;10741;52.272;9.580;2022-12-07T14:49:36;4.90;99.90
21167;DHT22;10741;52.272;9.580;2022-12-07T14:52:02;4.90;99.90
21167;DHT22;10741;52.272;9.580;2022-12-07T14:54:31;4.80;99.90
21167;DHT22;10741;52.272;9.580;2022-12-07T14:56:57;4.80;99.90
21167;DHT22;10741;52.272;9.580;2022-12-07T14:59:23;4.80;99.90
21167;DHT22;10741;52.272;9.580;2022-12-07T15:01:49;4.70;99.90
21167;DHT22;10741;52.272;9.580;2022-12-07T15:04:15;4.70;99.90
21167;DHT22;10741;52.272;9.580;2022-12-07T15:06:40;4.60;99.90
21167;DHT22;10741;52.272;9.580;2022-12-07T15:09:10;4.60;99.90
21167;DHT22;10741;52.272;9.580;2022-12-07T15:11:37;4.50;99.90
21167;DHT22;10741;52.272;9.580;2022-12-07T15:14:03;4.50;99.90
21167;DHT22;10741;52.272;9.580;2022-12-07T15:16:35;4.40;99.90
21167;DHT22;10741;52.272;9.580;2022-12-07T15:19:02;4.30;99.90
21167;DHT22;10741;52.272;9.580;2022-12-07T15:21:28;4.20;99.90
21167;DHT22;10741;52.272;9.580;2022-12-07T15:23:54;4.20;99.90
21167;DHT22;10741;52.272;9.580;2022-12-07T15:26:19;4.10;99.90
21167;DHT22;10741;52.272;9.580;2022-12-07T15:28:45;4.00;99.90
21167;DHT22;10741;52.272;9.580;2022-12-07T15:31:15;4.00;99.90
21167;DHT22;10741;52.272;9.580;2022-12-07T15:33:41;4.00;99.90
21167;DHT22;10741;52.272;9.580;2022-12-07T15:36:07;3.90;99.90
21167;DHT22;10741;52.272;9.580;2022-12-07T15:38:34;3.90;99.90
21167;DHT22;10741;52.272;9.580;2022-12-07T15:41:00;3.80;99.90
21167;DHT22;10741;52.272;9.580;2022-12-07T15:43:26;3.80;99.90
21167;DHT22;10741;52.272;9.580;2022-12-07T15:46:10;3.70;99.90
21167;DHT22;10741;52.272;9.580;2022-12-07T15:48:36;3.70;99.90
21167;DHT22;10741;52.272;9.580;2022-12-07T15:51:06;3.70;99.90
21167;DHT22;10741;52.272;9.580;2022-12-07T15:53:33;3.60;99.90
21167;DHT22;10741;52.272;9.580;2022-12-07T15:55:59;3.60;99.90
21167;DHT22;10741;52.272;9.580;2022-12-07T15:58:26;3.60;99.90
21167;DHT22;10741;52.272;9.580;2022-12-07T16:00:52;3.70;99.90
21167;DHT22;10741;52.272;9.580;2022-12-07T16:03:18;3.60;99.90
21167;DHT22;10741;52.272;9.580;2022-12-07T16:05:53;3.60;99.90
21167;DHT22;10741;52.272;9.580;2022-12-07T16:08:19;3.60;99.90
21167;DHT22;10741;52.272;9.580;2022-12-07T16:10:45;3.50;99.90
21167;DHT22;10741;52.272;9.580;2022-12-07T16:13:11;3.50;99.90
21167;DHT22;10741;52.272;9.580;2022-12-07T16:15:43;3.50;99.90
21167;DHT22;10741;52.272;9.580;2022-12-07T16:18:09;3.50;99.90
21167;DHT22;10741;52.272;9.580;2022-12-07T16:20:35;3.50;99.90
21167;DHT22;10741;52.272;9.580;2022-12-07T16:23:00;3.50;99.90
21167;DHT22;10741;52.272;9.580;2022-12-07T16:25:27;3.50;99.90
21167;DHT22;10741;52.272;9.580;2022-12-07T16:27:53;3.50;99.90
21167;DHT22;10741;52.272;9.580;2022-12-07T16:30:19;3.60;99.90
21167;DHT22;10741;52.272;9.580;2022-12-07T16:32:45;3.60;99.90
21167;DHT22;10741;52.272;9.580;2022-12-07T16:35:11;3.60;99.90
21167;DHT22;10741;52.272;9.580;2022-12-07T16:37:37;3.70;99.90
21167;DHT22;10741;52.272;9.580;2022-12-07T16:40:03;3.70;99.90
21167;DHT22;10741;52.272;9.580;2022-12-07T16:42:33;3.70;99.90
21167;DHT22;10741;52.272;9.580;2022-12-07T16:45:00;3.70;99.90
21167;DHT22;10741;52.272;9.580;2022-12-07T16:47:26;3.70;99.90
21167;DHT22;10741;52.272;9.580;2022-12-07T16:49:51;3.60;99.90
21167;DHT22;10741;52.272;9.580;2022-12-07T16:52:18;3.60;99.90
21167;DHT22;10741;52.272;9.580;2022-12-07T16:54:44;3.50;99.90
21167;DHT22;10741;52.272;9.580;2022-12-07T16:57:10;3.50;99.90
21167;DHT22;10741;52.272;9.580;2022-12-07T16:59:36;3.40;99.90
21167;DHT22;10741;52.272;9.580;2022-12-07T17:02:02;3.40;99.90
21167;DHT22;10741;52.272;9.580;2022-12-07T17:04:29;3.40;99.90
21167;DHT22;10741;52.272;9.580;2022-12-07T17:06:55;3.30;99.90
21167;DHT22;10741;52.272;9.580;2022-12-07T17:09:20;3.30;99.90
21167;DHT22;10741;52.272;9.580;2022-12-07T17:11:46;3.30;99.90
21167;DHT22;10741;52.272;9.580;2022-12-07T17:14:13;3.40;99.90
21167;DHT22;10741;52.272;9.580;2022-12-07T17:16:57;3.30;99.90
21167;DHT22;10741;52.272;9.580;2022-12-07T17:19:23;3.40;99.90
21167;DHT22;10741;52.272;9.580;2022-12-07T17:21:48;3.40;99.90
21167;DHT22;10741;52.272;9.580;2022-12-07T17:24:16;3.40;99.90
21167;DHT22;10741;52.272;9.580;2022-12-07T17:26:43;3.40;99.90
21167;DHT22;10741;52.272;9.580;2022-12-07T17:29:11;3.40;99.90
21167;DHT22;10741;52.272;9.580;2022-12-07T17:31:38;3.40;99.90
21167;DHT22;10741;52.272;9.580;2022-12-07T17:34:04;3.40;99.90
21167;DHT22;10741;52.272;9.580;2022-12-07T17:36:31;3.40;99.90
21167;DHT22;10741;52.272;9.580;2022-12-07T17:38:57;3.40;99.90
21167;DHT22;10741;52.272;9.580;2022-12-07T17:41:28;3.40;99.90
21167;DHT22;10741;52.272;9.580;2022-12-07T17:44:17;3.50;99.90
21167;DHT22;10741;52.272;9.580;2022-12-07T17:46:49;3.50;99.90
21167;DHT22;10741;52.272;9.580;2022-12-07T17:49:15;3.60;99.90
21167;DHT22;10741;52.272;9.580;2022-12-07T17:51:41;3.60;99.90
21167;DHT22;10741;52.272;9.580;2022-12-07T17:54:25;3.60;99.90